Ecokeeper — SVTY — position and weather

sailwx.info

Track history (hours):
 
Tides and Currents Weather Stations Pressure Air Temp Water Temp Dewpoint Dewpoint Depression Visibility Wind Speed Wind Dir Waves Ship Positions

Ecokeeper

Last reported at 2014-Dec-19 11:18 UTC. Time now 2014-Dec-19 16:31 UTC.
Position N 37°57' E 023°34'.

Length 90 m; draft 6.7 m.

Type: Tanker. MMSI: 240689000.

Date/timePositionNaut miles runAvg speedWind from/ knotsBaromVisibWave heightAir tempDewpointWater temp
2014-Dec-19 11:18N 37°57' E 023°34'0 0.0
2014-Dec-18 13:33N 37°57' E 023°34'0 0.0
2014-Dec-18 12:33N 37°57' E 023°34'0 0.0
2014-Dec-18 11:33N 37°57' E 023°34'0 0.0
2014-Dec-18 10:33N 37°57' E 023°34'  
2014-Dec-15 17:15N 37°57' E 023°34'1 1.4
2014-Dec-15 16:33N 37°56' E 023°35'6 6.1
2014-Dec-15 15:33N 37°51' E 023°31'0 0.0
2014-Dec-15 14:33N 37°51' E 023°31'0 0.1
2014-Dec-15 13:33N 37°51' E 023°31'0 0.1
2014-Dec-15 12:33N 37°51' E 023°31'0 0.0
2014-Dec-15 11:33N 37°51' E 023°31'0 0.0
2014-Dec-15 10:33N 37°51' E 023°31'0 0.0
2014-Dec-15 09:33N 37°51' E 023°31'0 0.0
2014-Dec-15 08:33N 37°51' E 023°31'0 0.0
2014-Dec-15 07:33N 37°51' E 023°31'5 5.2
2014-Dec-15 06:33N 37°55' E 023°34'  
2014-Dec-12 00:19N 37°57' E 023°34'0 0.3
2014-Dec-11 23:33N 37°57' E 023°34'6 6.0
2014-Dec-11 22:33N 37°51' E 023°31'1 0.6
2014-Dec-11 21:33N 37°51' E 023°31'0 0.0
2014-Dec-11 20:33N 37°51' E 023°31'0 0.0
2014-Dec-11 19:33N 37°51' E 023°31'0 0.0
2014-Dec-11 18:33N 37°51' E 023°31'0 0.1
2014-Dec-11 17:33N 37°51' E 023°31'0 0.1
2014-Dec-11 16:33N 37°51' E 023°31'0 0.1
2014-Dec-11 15:33N 37°51' E 023°31'0 0.1
2014-Dec-11 14:33N 37°51' E 023°31'3 2.9
2014-Dec-11 13:33N 37°53' E 023°33'4 3.7
2014-Dec-11 12:33N 37°57' E 023°34'  
Track history (hours):
 
Tides and Currents Weather Stations Pressure Air Temp Water Temp Dewpoint Dewpoint Depression Visibility Wind Speed Wind Dir Waves Ship Positions

Ecokeeper

Last reported at 2014-Dec-19 11:18 UTC. Time now 2014-Dec-19 16:31 UTC.
Position N 37°57' E 023°34'.

Length 90 m; draft 6.7 m.

Type: Tanker. MMSI: 240689000.

Date/timePositionNaut miles runAvg speedWind from/ knotsBaromVisibWave heightAir tempDewpointWater temp
2014-Dec-19 11:18N 37°57' E 023°34'0 0.0
2014-Dec-18 13:33N 37°57' E 023°34'0 0.0
2014-Dec-18 12:33N 37°57' E 023°34'0 0.0
2014-Dec-18 11:33N 37°57' E 023°34'0 0.0
2014-Dec-18 10:33N 37°57' E 023°34'  
2014-Dec-15 17:15N 37°57' E 023°34'1 1.4
2014-Dec-15 16:33N 37°56' E 023°35'6 6.1
2014-Dec-15 15:33N 37°51' E 023°31'0 0.0
2014-Dec-15 14:33N 37°51' E 023°31'0 0.1
2014-Dec-15 13:33N 37°51' E 023°31'0 0.1
2014-Dec-15 12:33N 37°51' E 023°31'0 0.0
2014-Dec-15 11:33N 37°51' E 023°31'0 0.0
2014-Dec-15 10:33N 37°51' E 023°31'0 0.0
2014-Dec-15 09:33N 37°51' E 023°31'0 0.0
2014-Dec-15 08:33N 37°51' E 023°31'0 0.0
2014-Dec-15 07:33N 37°51' E 023°31'5 5.2
2014-Dec-15 06:33N 37°55' E 023°34'  
2014-Dec-12 00:19N 37°57' E 023°34'0 0.3
2014-Dec-11 23:33N 37°57' E 023°34'6 6.0
2014-Dec-11 22:33N 37°51' E 023°31'1 0.6
2014-Dec-11 21:33N 37°51' E 023°31'0 0.0
2014-Dec-11 20:33N 37°51' E 023°31'0 0.0
2014-Dec-11 19:33N 37°51' E 023°31'0 0.0
2014-Dec-11 18:33N 37°51' E 023°31'0 0.1
2014-Dec-11 17:33N 37°51' E 023°31'0 0.1
2014-Dec-11 16:33N 37°51' E 023°31'0 0.1
2014-Dec-11 15:33N 37°51' E 023°31'0 0.1
2014-Dec-11 14:33N 37°51' E 023°31'3 2.9
2014-Dec-11 13:33N 37°53' E 023°33'4 3.7
2014-Dec-11 12:33N 37°57' E 023°34'  

Dump ship's entire track history